Terminal Aerodrome Forecast
Issued by NWS Central Illinois

Home | Current Version | Previous Version | Text Only | Print | Product List | Glossary On
Versions: 1 2 3 4 5 6 7 8 9 10 11 12 13 14 15 16 17
000
FTUS43 KILX 241000 AAC
TAFPIA
TAF AMD
KPIA 241020Z 2410/2506 VRB03KT P6SM SCT015
     FM241200 VRB03KT P6SM OVC006
     FM241700 21007KT P6SM BKN008
     FM242100 19005KT P6SM SCT012 BKN250
     FM250100 20007KT P6SM BKN025=

USA.gov is the U.S. government's official web portal to all federal, state and local government web resources and services.